createdAt,value
2023-02-07T00:00:24.791Z,30.20
2023-02-07T00:01:27.104Z,32.05
2023-02-07T00:02:33.590Z,26.70
2023-02-07T00:03:35.134Z,25.25
2023-02-07T00:04:37.640Z,34.28
2023-02-07T00:05:39.546Z,31.08
2023-02-07T00:06:45.476Z,29.90
2023-02-07T00:07:47.556Z,30.60
2023-02-07T00:08:50.891Z,34.72
2023-02-07T00:09:52.538Z,33.53
2023-02-07T00:10:55.027Z,26.98
2023-02-07T00:11:56.570Z,30.20
2023-02-07T00:12:59.177Z,35.17
2023-02-07T00:14:05.542Z,33.78
2023-02-07T00:15:09.293Z,35.20
2023-02-07T00:16:11.063Z,32.25
2023-02-07T00:17:13.617Z,32.03
2023-02-07T00:18:15.360Z,29.70
2023-02-07T00:19:19.761Z,33.42
2023-02-07T00:20:31.342Z,32.47
2023-02-07T00:21:35.515Z,28.55
2023-02-07T00:22:38.871Z,31.08
2023-02-07T00:23:41.636Z,28.60
2023-02-07T00:24:44.394Z,26.83
2023-02-07T00:25:46.189Z,28.88
2023-02-07T00:26:48.721Z,30.42
2023-02-07T00:27:50.462Z,35.45
2023-02-07T00:28:54.706Z,30.38
2023-02-07T00:29:56.265Z,31.40
2023-02-07T00:31:04.579Z,27.90
2023-02-07T00:32:06.366Z,28.15
2023-02-07T00:33:09.025Z,34.47
2023-02-07T00:34:11.422Z,31.00
2023-02-07T00:35:14.267Z,25.20
2023-02-07T00:36:18.971Z,29.85
2023-02-07T00:37:21.453Z,17.88
2023-02-07T00:38:24.503Z,22.40
2023-02-07T00:39:27.002Z,26.10
2023-02-07T00:40:29.000Z,28.25
2023-02-07T00:41:32.919Z,23.60
2023-02-07T00:42:36.685Z,22.20
2023-02-07T00:43:39.163Z,22.20
2023-02-07T00:44:40.692Z,27.05
2023-02-07T00:45:53.199Z,22.50
2023-02-07T00:46:54.773Z,24.35
2023-02-07T00:47:57.259Z,24.88
2023-02-07T00:48:58.834Z,20.85
2023-02-07T00:50:01.355Z,22.15
2023-02-07T00:51:03.518Z,16.67
2023-02-07T00:52:06.181Z,14.80
2023-02-07T00:53:07.770Z,16.63
2023-02-07T00:54:12.107Z,16.48
2023-02-07T00:55:14.511Z,22.60
2023-02-07T00:56:17.624Z,19.77
2023-02-07T00:57:19.137Z,21.70
2023-02-07T00:58:22.273Z,18.98
2023-02-07T00:59:23.958Z,21.42
2023-02-07T01:00:26.474Z,20.40
2023-02-07T01:01:28.156Z,23.40
2023-02-07T01:02:30.688Z,13.95
2023-02-07T01:03:32.300Z,20.20
2023-02-07T01:04:34.917Z,16.75
2023-02-07T01:05:36.984Z,15.55
2023-02-07T01:06:39.759Z,21.60
2023-02-07T01:07:41.450Z,21.55
2023-02-07T01:08:44.795Z,17.25
2023-02-07T01:09:48.643Z,22.80
2023-02-07T01:10:53.767Z,17.67
2023-02-07T01:11:55.871Z,19.33
2023-02-07T01:12:58.412Z,16.02
2023-02-07T01:14:00.858Z,20.00
2023-02-07T01:15:03.850Z,21.05
2023-02-07T01:16:07.065Z,18.67
2023-02-07T01:17:09.565Z,17.63
2023-02-07T01:18:12.316Z,18.98
2023-02-07T01:19:14.876Z,14.98
2023-02-07T01:20:16.971Z,14.18
2023-02-07T01:21:21.307Z,16.55
2023-02-07T01:22:22.846Z,17.33
2023-02-07T01:23:25.332Z,15.85
2023-02-07T01:24:26.972Z,15.70
2023-02-07T01:25:31.597Z,13.73
2023-02-07T01:26:38.921Z,25.45
2023-02-07T01:27:45.914Z,16.23
2023-02-07T01:28:47.476Z,15.57
2023-02-07T01:29:50.248Z,21.27
2023-02-07T01:30:51.849Z,12.15
2023-02-07T01:31:54.896Z,17.77
2023-02-07T01:32:57.649Z,12.15
2023-02-07T01:34:02.499Z,15.98
2023-02-07T01:35:05.746Z,16.30
2023-02-07T01:36:09.029Z,18.27
2023-02-07T01:37:10.720Z,18.20
2023-02-07T01:38:13.226Z,16.17
2023-02-07T01:39:14.773Z,13.98
2023-02-07T01:40:17.568Z,12.60
2023-02-07T01:41:21.763Z,18.83
2023-02-07T01:42:27.303Z,14.20
2023-02-07T01:43:32.016Z,16.55
2023-02-07T01:45:01.005Z,16.33
2023-02-07T01:46:02.538Z,15.18
2023-02-07T01:47:05.151Z,13.45
2023-02-07T01:48:12.790Z,15.23
2023-02-07T01:49:18.058Z,13.88
2023-02-07T01:50:28.188Z,17.17
2023-02-07T01:51:33.006Z,15.80
2023-02-07T01:52:39.478Z,14.82
2023-02-07T01:53:42.539Z,18.30
2023-02-07T01:54:55.052Z,19.75
2023-02-07T01:56:01.082Z,13.02
2023-02-07T01:57:07.292Z,17.23
2023-02-07T01:58:10.702Z,15.20
2023-02-07T01:59:12.829Z,15.00
2023-02-07T02:00:18.366Z,13.02
2023-02-07T02:01:25.276Z,19.25
2023-02-07T02:02:32.954Z,17.88
2023-02-07T02:03:39.046Z,14.40
2023-02-07T02:04:41.891Z,13.45
2023-02-07T02:05:45.646Z,11.52
2023-02-07T02:06:48.462Z,14.45
2023-02-07T02:07:50.206Z,10.93
2023-02-07T02:08:56.213Z,14.48
2023-02-07T02:09:58.742Z,12.13
2023-02-07T02:11:26.659Z,18.55
2023-02-07T02:12:48.892Z,9.18
2023-02-07T02:14:03.054Z,11.05
2023-02-07T02:15:27.229Z,19.67
2023-02-07T02:16:35.696Z,14.10
2023-02-07T02:17:49.416Z,17.20
2023-02-07T02:19:14.056Z,12.55
2023-02-07T02:20:33.042Z,21.65
2023-02-07T02:21:56.880Z,12.18
2023-02-07T02:23:13.706Z,14.80
2023-02-07T02:24:31.633Z,13.60
2023-02-07T02:25:54.676Z,10.63
2023-02-07T02:27:04.610Z,11.85
2023-02-07T02:28:37.806Z,12.43
2023-02-07T02:30:19.205Z,16.77
2023-02-07T02:31:41.720Z,12.85
2023-02-07T02:33:14.055Z,12.82
2023-02-07T02:34:19.825Z,17.05
2023-02-07T02:35:31.614Z,10.35
2023-02-07T02:36:41.389Z,10.63
2023-02-07T02:37:54.610Z,22.55
2023-02-07T02:39:03.276Z,13.98
2023-02-07T02:40:24.918Z,14.05
2023-02-07T02:41:32.523Z,13.50
2023-02-07T02:42:40.668Z,14.07
2023-02-07T02:43:45.348Z,16.88
2023-02-07T02:44:54.222Z,13.15
2023-02-07T02:45:58.691Z,15.02
2023-02-07T02:47:03.926Z,14.50
2023-02-07T02:48:10.962Z,17.58
2023-02-07T02:49:16.670Z,12.95
2023-02-07T02:50:22.036Z,12.68
2023-02-07T02:51:24.555Z,11.07
2023-02-07T02:52:40.526Z,9.63
2023-02-07T02:53:53.535Z,12.48
2023-02-07T02:54:55.073Z,16.45
2023-02-07T02:56:14.606Z,16.45
2023-02-07T02:57:37.299Z,20.58
2023-02-07T02:58:58.089Z,11.50
2023-02-07T03:00:17.739Z,17.35
2023-02-07T03:01:35.903Z,17.88
2023-02-07T03:02:49.793Z,14.52
2023-02-07T03:04:08.446Z,10.77
2023-02-07T03:05:29.585Z,11.55
2023-02-07T03:06:44.089Z,11.75
2023-02-07T03:07:58.902Z,10.68
2023-02-07T03:09:14.590Z,11.80
2023-02-07T03:10:27.176Z,14.05
2023-02-07T03:11:31.437Z,11.80
2023-02-07T03:12:41.970Z,12.63
2023-02-07T03:13:59.969Z,10.82
2023-02-07T03:15:04.716Z,12.60
2023-02-07T03:16:13.660Z,13.20
2023-02-07T03:17:22.838Z,13.90
2023-02-07T03:18:30.035Z,13.02
2023-02-07T03:19:35.841Z,14.40
2023-02-07T03:20:44.461Z,11.52
2023-02-07T03:21:50.804Z,12.48
2023-02-07T03:22:59.634Z,14.80
2023-02-07T03:24:15.005Z,14.88
2023-02-07T03:25:21.446Z,15.80
2023-02-07T03:26:27.628Z,11.15
2023-02-07T03:27:32.441Z,9.90
2023-02-07T03:28:35.735Z,10.15
2023-02-07T03:29:41.168Z,15.77
2023-02-07T03:30:44.898Z,12.32
2023-02-07T03:31:51.921Z,14.48
2023-02-07T03:32:58.253Z,14.98
2023-02-07T03:34:07.565Z,14.80
2023-02-07T03:35:16.948Z,15.00
2023-02-07T03:36:25.608Z,11.50
2023-02-07T03:37:31.769Z,12.50
2023-02-07T03:38:34.312Z,15.00
2023-02-07T03:39:36.692Z,13.00
2023-02-07T03:40:45.816Z,13.05
2023-02-07T03:41:53.673Z,13.85
2023-02-07T03:43:03.534Z,14.00
2023-02-07T03:44:07.338Z,9.90
2023-02-07T03:45:14.424Z,10.75
2023-02-07T03:46:15.962Z,11.18
2023-02-07T03:47:19.114Z,14.38
2023-02-07T03:48:20.668Z,14.68
2023-02-07T03:49:23.278Z,16.48
2023-02-07T03:50:26.375Z,11.55
2023-02-07T03:51:28.920Z,12.93
2023-02-07T03:52:31.471Z,8.88
2023-02-07T03:53:32.995Z,11.05
2023-02-07T03:54:35.936Z,11.50
2023-02-07T03:55:37.943Z,13.13
2023-02-07T03:56:45.074Z,12.85
2023-02-07T03:57:48.781Z,12.80
2023-02-07T03:58:52.318Z,14.70
2023-02-07T03:59:53.926Z,16.58
2023-02-07T04:00:56.414Z,10.43
2023-02-07T04:01:57.998Z,12.68
2023-02-07T04:03:00.539Z,11.60
2023-02-07T04:04:02.116Z,11.07
2023-02-07T04:05:04.774Z,12.77
2023-02-07T04:06:07.758Z,10.40
2023-02-07T04:07:11.277Z,14.82
2023-02-07T04:08:12.932Z,10.75
2023-02-07T04:09:15.444Z,10.05
2023-02-07T04:10:17.324Z,19.02
2023-02-07T04:11:19.821Z,9.48
2023-02-07T04:12:21.344Z,13.35
2023-02-07T04:13:23.853Z,14.93
2023-02-07T04:14:25.688Z,11.00
2023-02-07T04:15:28.365Z,15.82
2023-02-07T04:16:30.045Z,10.65
2023-02-07T04:17:32.851Z,10.18
2023-02-07T04:18:34.546Z,12.95
2023-02-07T04:19:37.567Z,10.73
2023-02-07T04:20:39.342Z,14.27
2023-02-07T04:21:43.571Z,12.05
2023-02-07T04:22:45.106Z,9.48
2023-02-07T04:23:47.654Z,6.85
2023-02-07T04:24:49.260Z,9.57
2023-02-07T04:25:51.751Z,10.75
2023-02-07T04:26:53.287Z,12.57
2023-02-07T04:27:56.098Z,10.07
2023-02-07T04:28:57.746Z,15.15
2023-02-07T04:30:00.582Z,10.68
2023-02-07T04:31:02.569Z,13.75
2023-02-07T04:32:05.713Z,15.80
2023-02-07T04:33:07.287Z,9.05
2023-02-07T04:34:11.594Z,13.50
2023-02-07T04:35:13.155Z,12.73
2023-02-07T04:36:17.979Z,14.98
2023-02-07T04:37:21.380Z,10.05
2023-02-07T04:38:26.532Z,12.32
2023-02-07T04:39:29.934Z,9.68
2023-02-07T04:40:33.333Z,8.63
2023-02-07T04:41:35.008Z,9.55
2023-02-07T04:42:37.591Z,11.85
2023-02-07T04:43:39.146Z,9.75
2023-02-07T04:44:41.637Z,9.30
2023-02-07T04:45:43.239Z,13.88
2023-02-07T04:46:45.766Z,9.90
2023-02-07T04:47:52.764Z,8.82
2023-02-07T04:48:55.269Z,14.10
2023-02-07T04:49:56.937Z,9.02
2023-02-07T04:50:59.466Z,12.77
2023-02-07T04:52:00.983Z,7.35
2023-02-07T04:53:04.862Z,7.85
2023-02-07T04:54:06.563Z,10.50
2023-02-07T04:55:10.279Z,10.73
2023-02-07T04:56:11.798Z,8.68
2023-02-07T04:57:14.269Z,9.15
2023-02-07T04:58:17.014Z,8.40
2023-02-07T04:59:20.016Z,7.18
2023-02-07T05:00:22.438Z,8.38
2023-02-07T05:01:25.021Z,8.52
2023-02-07T05:02:26.571Z,11.23
2023-02-07T05:03:29.207Z,8.57
2023-02-07T05:04:30.745Z,9.23
2023-02-07T05:05:33.252Z,8.82
2023-02-07T05:06:36.623Z,10.13
2023-02-07T05:07:39.273Z,16.38
2023-02-07T05:08:42.887Z,22.63
2023-02-07T05:09:46.533Z,12.13
2023-02-07T05:10:58.645Z,10.98
2023-02-07T05:12:04.299Z,8.77
2023-02-07T05:13:07.208Z,8.77
2023-02-07T05:14:09.876Z,7.45
2023-02-07T05:15:11.454Z,6.80
2023-02-07T05:16:14.301Z,9.68
2023-02-07T05:17:16.021Z,12.25
2023-02-07T05:18:19.630Z,8.65
2023-02-07T05:19:21.249Z,9.60
2023-02-07T05:20:24.338Z,11.82
2023-02-07T05:21:26.021Z,8.73
2023-02-07T05:22:28.935Z,7.80
2023-02-07T05:23:30.458Z,8.52
2023-02-07T05:24:34.274Z,8.70
2023-02-07T05:25:36.089Z,9.98
2023-02-07T05:26:40.362Z,9.18
2023-02-07T05:27:42.082Z,6.93
2023-02-07T05:28:44.650Z,10.35
2023-02-07T05:29:46.171Z,8.70
2023-02-07T05:30:49.227Z,8.13
2023-02-07T05:32:24.150Z,4.97
2023-02-07T05:33:25.785Z,6.50
2023-02-07T05:34:28.274Z,21.25
2023-02-07T05:35:30.186Z,7.68
2023-02-07T05:36:32.692Z,6.03
2023-02-07T05:37:34.781Z,7.18
2023-02-07T05:38:37.282Z,6.85
2023-02-07T05:39:40.139Z,8.55
2023-02-07T05:40:43.699Z,6.78
2023-02-07T05:41:45.222Z,16.20
2023-02-07T05:42:47.719Z,5.55
2023-02-07T05:43:49.461Z,7.97
2023-02-07T05:44:52.078Z,10.25
2023-02-07T05:45:55.850Z,9.13
2023-02-07T05:46:58.328Z,7.38
2023-02-07T05:48:01.229Z,9.18
2023-02-07T05:49:03.509Z,5.93
2023-02-07T05:50:07.062Z,6.63
2023-02-07T05:51:09.572Z,6.85
2023-02-07T05:52:11.114Z,6.75
2023-02-07T05:53:13.897Z,4.95
2023-02-07T05:54:15.445Z,7.13
2023-02-07T05:55:19.718Z,7.00
2023-02-07T05:56:28.229Z,7.65
2023-02-07T05:57:29.859Z,8.00
2023-02-07T05:58:34.147Z,6.60
2023-02-07T05:59:45.042Z,8.48
2023-02-07T06:00:48.882Z,10.43
2023-02-07T06:01:54.585Z,4.65
2023-02-07T06:02:57.079Z,6.53
2023-02-07T06:03:58.631Z,5.15
2023-02-07T06:05:01.214Z,5.60
2023-02-07T06:06:02.784Z,5.55
2023-02-07T06:07:05.411Z,5.38
2023-02-07T06:08:06.934Z,5.45
2023-02-07T06:09:09.481Z,4.53
2023-02-07T06:10:11.911Z,5.35
2023-02-07T06:11:15.858Z,5.28
2023-02-07T06:12:17.408Z,5.00
2023-02-07T06:13:19.976Z,6.32
2023-02-07T06:14:22.047Z,9.77
2023-02-07T06:15:25.132Z,8.48
2023-02-07T06:16:27.286Z,4.85
2023-02-07T06:17:30.265Z,5.90
2023-02-07T06:18:31.856Z,11.05
2023-02-07T06:19:34.379Z,7.65
2023-02-07T06:20:35.930Z,10.10
2023-02-07T06:21:46.437Z,5.85
2023-02-07T06:22:49.439Z,6.85
2023-02-07T06:23:51.654Z,7.13
2023-02-07T06:24:54.149Z,12.45
2023-02-07T06:25:55.821Z,9.80
2023-02-07T06:26:59.700Z,10.80
2023-02-07T06:28:01.262Z,9.70
2023-02-07T06:29:03.974Z,9.02
2023-02-07T06:30:06.685Z,10.57
2023-02-07T06:31:11.348Z,15.82
2023-02-07T06:32:13.912Z,7.88
2023-02-07T06:33:15.498Z,7.55
2023-02-07T06:34:18.020Z,8.60
2023-02-07T06:35:20.575Z,9.10
2023-02-07T06:36:22.246Z,7.75
2023-02-07T06:37:24.781Z,9.27
2023-02-07T06:38:26.418Z,7.05
2023-02-07T06:39:28.909Z,9.25
2023-02-07T06:40:30.441Z,11.50
2023-02-07T06:41:34.068Z,10.40
2023-02-07T06:42:47.973Z,18.00
2023-02-07T06:43:49.948Z,11.18
2023-02-07T06:44:53.994Z,13.35
2023-02-07T06:45:55.590Z,12.57
2023-02-07T06:46:58.099Z,9.38
2023-02-07T06:47:59.667Z,9.63
2023-02-07T06:49:02.147Z,13.27
2023-02-07T06:50:06.344Z,15.93
2023-02-07T06:51:08.734Z,12.23
2023-02-07T06:52:11.449Z,14.20
2023-02-07T06:53:13.946Z,15.70
2023-02-07T06:54:16.514Z,12.32
2023-02-07T06:55:18.237Z,18.23
2023-02-07T06:56:21.153Z,11.75
2023-02-07T06:57:23.648Z,10.90
2023-02-07T06:58:26.888Z,14.35
2023-02-07T06:59:29.426Z,11.80
2023-02-07T07:00:31.267Z,12.98
2023-02-07T07:01:35.330Z,10.90
2023-02-07T07:02:41.236Z,13.65
2023-02-07T07:03:45.361Z,12.38
2023-02-07T07:04:47.979Z,9.23
2023-02-07T07:05:49.565Z,13.77
2023-02-07T07:06:52.023Z,14.20
2023-02-07T07:07:57.949Z,13.15
2023-02-07T07:08:59.480Z,15.05
2023-02-07T07:10:01.991Z,11.35
2023-02-07T07:11:03.845Z,12.15
2023-02-07T07:12:07.670Z,11.30
2023-02-07T07:13:09.491Z,13.10
2023-02-07T07:14:13.659Z,14.00
2023-02-07T07:15:15.626Z,12.82
2023-02-07T07:16:20.187Z,10.00
2023-02-07T07:17:23.762Z,15.82
2023-02-07T07:18:27.449Z,14.13
2023-02-07T07:19:31.197Z,13.88
2023-02-07T07:20:32.841Z,14.55
2023-02-07T07:21:36.527Z,15.30
2023-02-07T07:22:39.087Z,14.05
2023-02-07T07:23:41.610Z,11.18
2023-02-07T07:24:43.424Z,13.77
2023-02-07T07:25:45.918Z,17.10
2023-02-07T07:26:50.053Z,13.02
2023-02-07T07:27:53.428Z,10.15
2023-02-07T07:28:58.137Z,10.30
2023-02-07T07:30:02.028Z,9.23
2023-02-07T07:31:04.777Z,12.90
2023-02-07T07:32:07.455Z,13.63
2023-02-07T07:33:10.203Z,11.88
2023-02-07T07:34:13.338Z,16.73
2023-02-07T07:35:17.650Z,11.40
2023-02-07T07:36:21.484Z,13.32
2023-02-07T07:37:23.032Z,9.13
2023-02-07T07:38:25.570Z,13.23
2023-02-07T07:39:28.130Z,14.43
2023-02-07T07:40:30.155Z,13.95
2023-02-07T07:41:34.719Z,17.35
2023-02-07T07:42:47.267Z,11.30
2023-02-07T07:43:49.866Z,16.10
2023-02-07T07:44:52.361Z,10.93
2023-02-07T07:45:57.201Z,13.38
2023-02-07T07:47:00.004Z,13.60
2023-02-07T07:48:02.630Z,13.90
2023-02-07T07:49:05.177Z,13.30
2023-02-07T07:50:08.472Z,21.40
2023-02-07T07:51:10.977Z,23.60
2023-02-07T07:52:12.555Z,15.65
2023-02-07T07:53:15.721Z,12.27
2023-02-07T07:54:18.899Z,16.67
2023-02-07T07:55:21.690Z,14.18
2023-02-07T07:56:29.262Z,13.10
2023-02-07T07:57:31.949Z,11.75
2023-02-07T07:58:34.468Z,16.92
2023-02-07T07:59:37.133Z,15.27
2023-02-07T08:00:39.965Z,17.25
2023-02-07T08:01:44.026Z,13.10
2023-02-07T08:02:46.679Z,14.77
2023-02-07T08:03:49.238Z,12.20
2023-02-07T08:04:52.149Z,14.93
2023-02-07T08:05:55.316Z,11.18
2023-02-07T08:06:57.578Z,12.60
2023-02-07T08:08:10.188Z,14.98
2023-02-07T08:09:22.749Z,13.10
2023-02-07T08:10:26.372Z,10.95
2023-02-07T08:11:28.082Z,10.30
2023-02-07T08:12:30.665Z,16.60
2023-02-07T08:13:33.590Z,14.50
2023-02-07T08:14:36.081Z,10.05
2023-02-07T08:15:39.205Z,14.07
2023-02-07T08:16:41.735Z,13.30
2023-02-07T08:17:44.965Z,12.07
2023-02-07T08:18:47.536Z,13.80
2023-02-07T08:19:49.129Z,8.95
2023-02-07T08:20:51.939Z,9.20
2023-02-07T08:21:54.457Z,12.57
2023-02-07T08:22:57.931Z,9.15
2023-02-07T08:23:59.562Z,8.65
2023-02-07T08:25:02.403Z,13.25
2023-02-07T08:26:07.787Z,10.05
2023-02-07T08:27:14.398Z,11.73
2023-02-07T08:28:17.954Z,22.55
2023-02-07T08:29:20.467Z,17.05
2023-02-07T08:30:23.232Z,13.15
2023-02-07T08:31:25.870Z,11.65
2023-02-07T08:32:29.427Z,11.25
2023-02-07T08:33:33.726Z,9.57
2023-02-07T08:34:37.414Z,14.90
2023-02-07T08:35:40.003Z,20.23
2023-02-07T08:36:41.594Z,14.05
2023-02-07T08:37:44.095Z,8.77
2023-02-07T08:38:56.623Z,9.50
2023-02-07T08:39:59.169Z,11.40
2023-02-07T08:41:02.038Z,12.05
2023-02-07T08:42:05.320Z,9.88
2023-02-07T08:43:12.160Z,11.52
2023-02-07T08:44:15.231Z,13.48
2023-02-07T08:45:21.010Z,11.32
2023-02-07T08:46:22.631Z,10.88
2023-02-07T08:47:25.252Z,7.40
2023-02-07T08:48:27.838Z,10.15
2023-02-07T08:49:30.904Z,8.95
2023-02-07T08:50:33.422Z,11.73
2023-02-07T08:51:35.932Z,7.75
2023-02-07T08:52:38.453Z,6.13
2023-02-07T08:53:40.948Z,9.88
2023-02-07T08:54:43.418Z,8.65
2023-02-07T08:55:45.895Z,7.45
2023-02-07T08:56:51.892Z,7.82
2023-02-07T08:57:55.168Z,6.35
2023-02-07T08:59:07.575Z,8.63
2023-02-07T09:00:12.311Z,6.75
2023-02-07T09:01:14.512Z,7.47
2023-02-07T09:02:17.056Z,6.53
2023-02-07T09:03:19.527Z,7.60
2023-02-07T09:04:22.364Z,7.40
2023-02-07T09:05:26.198Z,6.35
2023-02-07T09:06:28.999Z,9.25
2023-02-07T09:07:31.626Z,6.57
2023-02-07T09:08:33.540Z,5.82
2023-02-07T09:09:36.226Z,6.32
2023-02-07T09:10:39.200Z,5.88
2023-02-07T09:11:41.972Z,7.32
2023-02-07T09:12:44.461Z,9.40
2023-02-07T09:13:47.429Z,14.20
2023-02-07T09:14:49.925Z,6.05
2023-02-07T09:15:56.403Z,11.82
2023-02-07T09:16:59.424Z,8.82
2023-02-07T09:18:01.971Z,8.45
2023-02-07T09:19:03.887Z,7.28
2023-02-07T09:20:07.135Z,7.20
2023-02-07T09:21:11.024Z,10.18
2023-02-07T09:22:13.687Z,6.43
2023-02-07T09:23:19.118Z,7.30
2023-02-07T09:24:21.826Z,7.60
2023-02-07T09:25:23.735Z,9.02
2023-02-07T09:26:27.144Z,7.97
2023-02-07T09:27:29.644Z,6.93
2023-02-07T09:28:32.348Z,7.43
2023-02-07T09:29:35.056Z,6.13
2023-02-07T09:30:39.683Z,7.50
2023-02-07T09:31:43.750Z,7.30
2023-02-07T09:32:46.267Z,7.55
2023-02-07T09:33:48.821Z,7.55
2023-02-07T09:34:52.316Z,12.80
2023-02-07T09:35:55.125Z,6.82
2023-02-07T09:36:58.986Z,9.05
2023-02-07T09:38:15.059Z,8.73
2023-02-07T09:39:29.382Z,6.32
2023-02-07T09:40:34.505Z,10.18
2023-02-07T09:41:43.129Z,6.85
2023-02-07T09:42:52.708Z,5.22
2023-02-07T09:44:08.384Z,11.30
2023-02-07T09:45:17.026Z,5.35
2023-02-07T09:46:25.115Z,6.97
2023-02-07T09:47:29.367Z,6.15
2023-02-07T09:48:43.971Z,7.63
2023-02-07T09:49:50.062Z,7.60
2023-02-07T09:50:55.885Z,7.18
2023-02-07T09:52:00.578Z,6.72
2023-02-07T09:53:09.483Z,7.28
2023-02-07T09:54:19.611Z,7.78
2023-02-07T09:55:26.176Z,6.70
2023-02-07T09:56:30.968Z,11.05
2023-02-07T09:57:42.943Z,12.73
2023-02-07T09:58:52.113Z,8.05
2023-02-07T10:00:02.664Z,6.32
2023-02-07T10:01:14.976Z,6.97
2023-02-07T10:02:25.438Z,7.32
2023-02-07T10:03:29.418Z,9.10
2023-02-07T10:04:40.402Z,12.25
2023-02-07T10:05:46.245Z,6.63
2023-02-07T10:06:52.488Z,9.77
2023-02-07T10:07:56.526Z,7.40
2023-02-07T10:09:00.679Z,8.55
2023-02-07T10:10:03.197Z,9.45
2023-02-07T10:11:25.142Z,6.85
2023-02-07T10:12:46.183Z,6.65
2023-02-07T10:16:51.443Z,9.65
2023-02-07T10:18:09.640Z,8.35
2023-02-07T10:19:21.018Z,7.93
2023-02-07T10:20:36.003Z,7.28
2023-02-07T10:21:45.346Z,7.25
2023-02-07T10:22:57.498Z,9.35
2023-02-07T10:24:20.567Z,11.18
2023-02-07T10:28:37.698Z,7.80
2023-02-07T10:29:57.462Z,7.90
2023-02-07T10:31:16.272Z,9.20
2023-02-07T10:32:23.435Z,7.25
2023-02-07T10:33:33.761Z,8.00
2023-02-07T10:34:40.661Z,8.05
2023-02-07T10:35:45.012Z,8.20
2023-02-07T10:36:52.363Z,7.57
2023-02-07T10:37:58.309Z,8.15
2023-02-07T10:39:15.310Z,9.88
2023-02-07T10:40:23.560Z,7.88
2023-02-07T10:41:33.294Z,11.40
2023-02-07T10:42:38.644Z,7.53
2023-02-07T10:43:45.669Z,8.63
2023-02-07T10:44:47.797Z,9.93
2023-02-07T10:45:57.006Z,11.68
2023-02-07T10:47:16.686Z,8.23
2023-02-07T10:53:07.055Z,12.80
2023-02-07T10:54:12.397Z,7.70
2023-02-07T10:55:19.918Z,9.18
2023-02-07T10:56:23.845Z,10.05
2023-02-07T10:57:27.614Z,6.63
2023-02-07T10:58:40.125Z,6.70
2023-02-07T10:59:46.324Z,5.65
2023-02-07T11:00:50.733Z,7.38
2023-02-07T11:01:54.615Z,7.40
2023-02-07T11:03:03.287Z,6.28
2023-02-07T11:04:23.686Z,7.78
2023-02-07T11:05:37.568Z,7.68
2023-02-07T11:06:44.865Z,7.90
2023-02-07T11:07:57.031Z,6.28
2023-02-07T11:09:19.780Z,8.13
2023-02-07T11:10:25.199Z,7.10
2023-02-07T11:11:32.385Z,7.60
2023-02-07T11:12:34.876Z,6.28
2023-02-07T11:13:48.584Z,6.43
2023-02-07T11:15:02.345Z,6.78
2023-02-07T11:16:08.599Z,7.55
2023-02-07T11:17:21.603Z,7.32
2023-02-07T11:18:38.570Z,7.13
2023-02-07T11:19:41.349Z,8.85
2023-02-07T11:20:52.479Z,6.03
2023-02-07T11:22:10.068Z,6.60
2023-02-07T11:23:23.807Z,5.82
2023-02-07T11:24:35.695Z,13.43
2023-02-07T11:25:41.377Z,7.30
2023-02-07T11:26:55.432Z,7.30
2023-02-07T11:27:58.095Z,8.05
2023-02-07T11:29:08.139Z,12.80
2023-02-07T11:30:19.217Z,6.30
2023-02-07T11:31:30.375Z,6.15
2023-02-07T11:32:33.083Z,8.57
2023-02-07T11:33:37.237Z,8.07
2023-02-07T11:34:50.415Z,11.25
2023-02-07T11:36:04.580Z,9.77
2023-02-07T11:37:20.553Z,8.70
2023-02-07T11:38:23.973Z,8.38
2023-02-07T11:39:28.593Z,9.57
2023-02-07T11:40:39.086Z,7.80
2023-02-07T11:41:41.634Z,6.82
2023-02-07T11:42:43.378Z,8.85
2023-02-07T11:48:34.786Z,6.97
2023-02-07T11:49:43.388Z,7.32
2023-02-07T11:50:49.010Z,8.20
2023-02-07T11:51:53.134Z,8.57
2023-02-07T11:52:57.941Z,9.15
2023-02-07T11:54:03.951Z,7.40
2023-02-07T11:55:15.620Z,9.48
2023-02-07T11:56:25.142Z,7.13
2023-02-07T11:57:31.266Z,7.75
2023-02-07T11:58:37.680Z,7.65
2023-02-07T11:59:48.285Z,8.30
2023-02-07T12:00:51.029Z,6.57
2023-02-07T12:01:56.616Z,7.80
2023-02-07T12:03:05.478Z,7.85
2023-02-07T12:04:11.793Z,7.57
2023-02-07T12:05:22.511Z,8.70
2023-02-07T12:06:31.010Z,10.60
2023-02-07T12:07:47.365Z,8.15
2023-02-07T12:08:54.903Z,7.10
2023-02-07T12:10:00.355Z,8.05
2023-02-07T12:11:12.833Z,7.03
2023-02-07T12:12:34.461Z,8.32
2023-02-07T12:13:42.551Z,7.13
2023-02-07T12:14:51.368Z,8.40
2023-02-07T12:16:00.049Z,7.65
2023-02-07T12:17:07.848Z,5.20
2023-02-07T12:18:17.655Z,6.93
2023-02-07T12:19:23.794Z,6.15
2023-02-07T12:20:29.396Z,6.65
2023-02-07T12:21:49.338Z,7.78
2023-02-07T12:23:31.395Z,6.25
2023-02-07T12:24:37.143Z,7.80
2023-02-07T12:25:43.326Z,7.40
2023-02-07T12:26:52.920Z,9.02
2023-02-07T12:28:01.968Z,7.25
2023-02-07T12:29:16.665Z,7.10
2023-02-07T12:30:25.771Z,6.75
2023-02-07T12:31:36.689Z,6.85
2023-02-07T12:32:45.226Z,6.70
2023-02-07T12:33:53.792Z,8.05
2023-02-07T12:35:00.259Z,7.70
2023-02-07T12:36:11.221Z,6.57
2023-02-07T12:37:22.802Z,7.68
2023-02-07T12:38:27.291Z,5.95
2023-02-07T12:39:37.933Z,6.43
2023-02-07T12:40:45.376Z,6.88
2023-02-07T12:41:54.756Z,7.88
2023-02-07T12:43:02.751Z,8.63
2023-02-07T12:44:23.578Z,5.95
2023-02-07T12:45:39.670Z,6.28
2023-02-07T12:46:52.797Z,6.53
2023-02-07T12:48:05.714Z,9.23
2023-02-07T12:49:37.325Z,6.38
2023-02-07T12:50:55.671Z,7.90
2023-02-07T12:52:15.225Z,6.05
2023-02-07T12:53:36.718Z,7.60
2023-02-07T12:54:48.479Z,7.90
2023-02-07T12:56:02.350Z,8.20
2023-02-07T12:57:15.347Z,10.45
2023-02-07T12:58:43.658Z,7.15
2023-02-07T13:00:02.352Z,10.75
2023-02-07T13:01:13.890Z,14.48
2023-02-07T13:02:35.490Z,9.98
2023-02-07T13:03:54.044Z,6.93
2023-02-07T13:08:10.715Z,7.43
2023-02-07T13:09:19.090Z,6.05
2023-02-07T13:10:28.682Z,7.22
2023-02-07T13:11:38.400Z,10.57
2023-02-07T13:12:50.522Z,7.75
2023-02-07T13:18:37.232Z,7.55
2023-02-07T13:19:49.383Z,8.15
2023-02-07T13:21:06.812Z,7.25
2023-02-07T13:22:18.847Z,7.53
2023-02-07T13:23:23.632Z,6.60
2023-02-07T13:24:28.521Z,6.82
2023-02-07T13:25:35.301Z,7.80
2023-02-07T13:26:38.519Z,6.20
2023-02-07T13:27:42.421Z,7.75
2023-02-07T13:28:48.201Z,6.72
2023-02-07T13:29:52.339Z,5.15
2023-02-07T13:30:54.878Z,7.40
2023-02-07T13:32:01.012Z,5.07
2023-02-07T13:33:11.113Z,9.10
2023-02-07T13:34:16.811Z,6.85
2023-02-07T13:35:26.122Z,5.55
2023-02-07T13:36:38.538Z,7.15
2023-02-07T13:37:50.860Z,6.88
2023-02-07T13:39:11.185Z,5.55
2023-02-07T13:40:27.567Z,5.60
2023-02-07T13:41:36.979Z,5.38
2023-02-07T13:42:47.319Z,7.70
2023-02-07T13:44:09.323Z,9.13
2023-02-07T13:48:24.628Z,7.93
2023-02-07T13:49:41.642Z,7.07
2023-02-07T13:51:00.930Z,21.52
2023-02-07T13:52:06.145Z,9.43
2023-02-07T13:53:28.780Z,8.23
2023-02-07T13:54:41.206Z,5.40
2023-02-07T13:55:48.111Z,7.80
2023-02-07T13:57:17.238Z,6.50
2023-02-07T13:59:12.061Z,14.20
2023-02-07T14:00:21.120Z,5.70
2023-02-07T14:06:17.782Z,14.35
2023-02-07T14:07:24.703Z,9.27
2023-02-07T14:08:28.266Z,7.15
2023-02-07T14:09:38.378Z,5.78
2023-02-07T14:13:04.422Z,6.30
2023-02-07T14:14:17.004Z,5.90
2023-02-07T14:15:57.522Z,8.10
2023-02-07T14:17:01.901Z,9.88
2023-02-07T14:18:05.063Z,7.28
2023-02-07T14:19:14.861Z,5.82
2023-02-07T14:20:56.099Z,5.43
2023-02-07T14:22:15.321Z,5.97
2023-02-07T14:23:51.453Z,9.05
2023-02-07T14:25:21.115Z,6.65
2023-02-07T14:26:51.342Z,7.65
2023-02-07T14:28:20.618Z,9.43
2023-02-07T14:29:56.959Z,7.90
2023-02-07T14:31:16.465Z,5.30
2023-02-07T14:32:31.143Z,6.57
2023-02-07T14:33:35.869Z,6.05
2023-02-07T14:35:00.365Z,7.88
2023-02-07T14:36:06.942Z,5.32
2023-02-07T14:37:23.152Z,4.65
2023-02-07T14:38:31.463Z,5.60
2023-02-07T14:39:34.451Z,6.10
2023-02-07T14:41:01.832Z,5.80
2023-02-07T14:45:13.934Z,5.68
2023-02-07T14:46:27.354Z,9.52
2023-02-07T14:47:29.699Z,6.38
2023-02-07T14:48:42.078Z,6.10
2023-02-07T14:49:48.525Z,6.55
2023-02-07T14:50:53.440Z,5.13
2023-02-07T14:52:00.584Z,6.68
2023-02-07T14:53:15.485Z,8.93
2023-02-07T14:54:22.180Z,6.70
2023-02-07T14:55:31.396Z,15.93
2023-02-07T14:56:48.643Z,4.30
2023-02-07T14:58:01.362Z,6.22
2023-02-07T14:59:04.007Z,6.85
2023-02-07T15:00:23.811Z,6.10
2023-02-07T15:01:26.790Z,5.72
2023-02-07T15:02:35.825Z,5.80
2023-02-07T15:03:38.475Z,8.70
2023-02-07T15:04:43.261Z,7.35
2023-02-07T15:05:51.595Z,4.40
2023-02-07T15:07:00.064Z,5.90
2023-02-07T15:08:09.842Z,4.35
2023-02-07T15:09:25.850Z,6.30
2023-02-07T15:10:30.101Z,5.00